Time;durP1;ratioP1;P1;durP2;ratioP2;P2;SDS_P1;SDS_P2;PMS_P1;PMS_P2;Temp;Humidity;BMP_temperature;BMP_pressure;BME280_temperature;BME280_humidity;BME280_pressure;Samples;Min_cycle;Max_cycle;Signal;HPM_P1;HPM_P2
2022/08/31 00:04:17;;;;;;;16.60;12.90;;;;;;;-141.28;100.00;49625.66;5103311;28;20706;-77
2022/08/31 00:06:44;;;;;;;17.80;13.23;;;;;;;-141.28;100.00;49545.19;5096799;28;20280;-76
2022/08/31 00:09:11;;;;;;;16.37;13.97;;;;;;;-141.28;100.00;49517.72;5092974;28;20643;-78
2022/08/31 00:11:38;;;;;;;22.00;14.83;;;;;;;-141.28;100.00;49494.16;5084679;28;20192;-76
2022/08/31 00:14:09;;;;;;;20.50;13.70;;;;;;;-141.28;100.00;49454.94;5074679;28;20196;-75
2022/08/31 00:16:40;;;;;;;19.67;14.70;;;;;;;-141.28;100.00;49451.00;5094503;28;20223;-74
2022/08/31 00:19:08;;;;;;;15.67;13.53;;;;;;;-141.28;100.00;49445.13;5081856;28;20237;-75
2022/08/31 00:21:37;;;;;;;18.33;13.60;;;;;;;-141.28;100.00;49427.44;5081277;28;20196;-74
2022/08/31 00:24:05;;;;;;;19.27;14.47;;;;;;;-141.28;100.00;49417.63;5073267;28;20293;-75
2022/08/31 00:26:32;;;;;;;20.57;14.90;;;;;;;-141.28;100.00;49372.50;5074064;28;20199;-75
2022/08/31 00:29:00;;;;;;;16.63;13.60;;;;;;;-141.28;100.00;49343.06;5072332;28;20196;-75
2022/08/31 00:31:29;;;;;;;18.83;14.30;;;;;;;-141.28;100.00;49341.13;5092084;28;20578;-75
2022/08/31 00:33:56;;;;;;;22.90;14.90;;;;;;;-141.28;100.00;49325.41;5100687;28;20199;-77
2022/08/31 00:36:25;;;;;;;20.17;15.43;;;;;;;-141.28;100.00;49321.50;5098190;28;20195;-75
2022/08/31 00:38:53;;;;;;;21.03;15.83;;;;;;;-141.28;100.00;49317.56;5099933;28;20229;-75
2022/08/31 00:41:23;;;;;;;21.30;16.00;;;;;;;-141.28;100.00;49317.56;5097656;28;20207;-76
2022/08/31 00:43:52;;;;;;;18.57;15.87;;;;;;;-141.28;100.00;49313.66;5091733;28;20227;-75
2022/08/31 00:46:22;;;;;;;28.00;16.03;;;;;;;-141.28;100.00;49309.72;5055085;28;20196;-74
2022/08/31 00:48:59;;;;;;;22.40;15.00;;;;;;;-141.28;100.00;49274.41;5073624;28;20204;-75
2022/08/31 00:51:28;;;;;;;21.20;15.93;;;;;;;-141.28;100.00;49254.78;5072688;28;20200;-75
2022/08/31 00:53:55;;;;;;;15.27;13.63;;;;;;;-141.28;100.00;49223.38;5076760;28;20208;-74
2022/08/31 00:56:23;;;;;;;20.00;14.10;;;;;;;-141.28;100.00;49199.84;5081742;28;20210;-75
2022/08/31 00:58:54;;;;;;;16.37;14.57;;;;;;;-141.28;100.00;49170.41;5099492;28;20206;-75
2022/08/31 01:01:22;;;;;;;18.13;14.60;;;;;;;-141.28;100.00;49156.66;5092523;28;20219;-75
2022/08/31 01:03:50;;;;;;;25.90;15.43;;;;;;;-141.28;100.00;49109.59;5077854;28;20231;-75
2022/08/31 01:06:20;;;;;;;23.60;15.03;;;;;;;-141.28;100.00;49093.88;5088159;28;20589;-76
2022/08/31 01:08:48;;;;;;;21.20;16.20;;;;;;;-141.28;100.00;49089.97;5093154;28;20252;-76
2022/08/31 01:11:17;;;;;;;20.97;15.30;;;;;;;-141.28;100.00;49078.19;5103871;28;20738;-77
2022/08/31 01:13:44;;;;;;;20.37;16.23;;;;;;;-141.28;100.00;49062.50;5093032;28;20199;-75
2022/08/31 01:16:18;;;;;;;19.73;15.63;;;;;;;-141.28;100.00;49062.50;5075212;28;20196;-76
2022/08/31 01:18:49;;;;;;;19.50;16.13;;;;;;;-141.28;100.00;49088.00;5078668;28;20716;-78
2022/08/31 01:21:26;;;;;;;25.07;18.13;;;;;;;-141.28;100.00;49117.44;5104572;28;20303;-75
2022/08/31 01:24:06;;;;;;;22.80;17.97;;;;;;;-141.28;100.00;49203.75;5080258;28;20321;-76
2022/08/31 01:26:33;;;;;;;26.70;17.50;;;;;;;-141.28;100.00;49213.56;5109437;28;20669;-76
2022/08/31 01:29:04;;;;;;;21.93;17.37;;;;;;;-141.28;100.00;49223.38;5100711;28;20212;-74
2022/08/31 01:31:37;;;;;;;26.70;18.27;;;;;;;-141.28;100.00;49258.69;5096312;28;20506;-76
2022/08/31 01:34:06;;;;;;;21.13;16.93;;;;;;;-141.28;100.00;49311.69;5111304;28;20213;-75
2022/08/31 01:36:35;;;;;;;24.80;17.63;;;;;;;-141.28;100.00;49352.88;5110350;28;20296;-76
2022/08/31 01:39:07;;;;;;;21.77;17.10;;;;;;;-141.28;100.00;49376.44;5081594;28;20245;-76
2022/08/31 01:41:40;;;;;;;22.50;18.47;;;;;;;-141.28;100.00;49451.00;5077173;28;20203;-77
2022/08/31 01:44:07;;;;;;;25.87;17.67;;;;;;;-141.28;100.00;49666.84;5097765;28;20309;-76
2022/08/31 01:46:34;;;;;;;23.30;17.53;;;;;;;-141.28;100.00;49674.72;5109103;28;20217;-75
2022/08/31 01:49:02;;;;;;;23.03;18.17;;;;;;;-141.28;100.00;49698.25;5097334;28;20254;-74
2022/08/31 01:51:29;;;;;;;28.50;17.60;;;;;;;-141.28;100.00;49700.22;5101935;28;20195;-75
2022/08/31 01:53:57;;;;;;;26.83;18.93;;;;;;;-141.28;100.00;49686.47;5088492;28;20650;-75
2022/08/31 01:56:32;;;;;;;26.33;18.60;;;;;;;-141.28;100.00;49710.03;5063855;28;20225;-76
2022/08/31 01:59:00;;;;;;;25.43;17.87;;;;;;;-141.28;100.00;49674.72;5094522;28;20217;-76
2022/08/31 02:01:31;;;;;;;32.03;17.40;;;;;;;-141.28;100.00;49672.75;5080521;28;20249;-76
2022/08/31 02:03:59;;;;;;;26.30;18.37;;;;;;;-141.28;100.00;49690.41;5089504;28;20224;-76
2022/08/31 02:06:26;;;;;;;24.03;18.63;;;;;;;-141.28;100.00;49643.31;5071805;28;20188;-76
2022/08/31 02:08:56;;;;;;;34.10;18.63;;;;;;;-141.28;100.00;49639.38;5083762;28;20195;-75
2022/08/31 02:11:23;;;;;;;22.90;17.23;;;;;;;-141.28;100.00;49631.53;5080173;28;20211;-75
2022/08/31 02:13:52;;;;;;;25.87;17.93;;;;;;;-141.28;100.00;49639.38;5091484;28;20195;-76
2022/08/31 02:16:19;;;;;;;28.90;18.93;;;;;;;-141.28;100.00;49580.50;5091810;28;20205;-78
2022/08/31 02:18:47;;;;;;;25.80;17.67;;;;;;;-141.28;100.00;49617.78;5084713;28;20705;-75
2022/08/31 02:21:15;;;;;;;24.00;18.27;;;;;;;-141.28;100.00;49607.97;5097201;28;20203;-76
2022/08/31 02:23:44;;;;;;;29.53;20.03;;;;;;;-141.28;100.00;49576.59;5091724;28;20195;-74
2022/08/31 02:26:11;;;;;;;26.63;19.00;;;;;;;-141.28;100.00;49560.88;5076338;28;20200;-75
2022/08/31 02:28:39;;;;;;;22.37;18.60;;;;;;;-141.28;100.00;49551.06;5076224;28;20572;-77
2022/08/31 02:31:08;;;;;;;23.90;18.33;;;;;;;-141.28;100.00;49537.34;5088751;28;20208;-74
2022/08/31 02:33:37;;;;;;;36.03;20.07;;;;;;;-141.28;100.00;49517.72;5094444;28;20190;-75
2022/08/31 02:36:06;;;;;;;26.93;18.77;;;;;;;-141.28;100.00;49517.72;5110727;28;20630;-76
2022/08/31 02:38:37;;;;;;;23.97;18.67;;;;;;;-141.28;100.00;49482.41;5089937;28;20220;-75
2022/08/31 02:41:06;;;;;;;24.63;17.97;;;;;;;-141.28;100.00;49521.63;5103743;28;20195;-76
2022/08/31 02:43:34;;;;;;;27.90;18.20;;;;;;;-141.28;100.00;49478.47;5092744;28;20187;-75
2022/08/31 02:46:01;;;;;;;22.10;17.70;;;;;;;-141.28;100.00;49498.09;5080312;28;20327;-77
2022/08/31 02:48:31;;;;;;;22.97;17.23;;;;;;;-141.28;100.00;49507.91;5094311;28;20198;-74
2022/08/31 02:51:04;;;;;;;31.87;18.63;;;;;;;-141.28;100.00;49529.50;5092766;28;20203;-76
2022/08/31 02:53:31;;;;;;;24.63;18.07;;;;;;;-141.28;100.00;49511.84;5081892;28;20602;-75
2022/08/31 02:55:59;;;;;;;26.20;18.07;;;;;;;-141.28;100.00;49509.88;5111713;28;20649;-75
2022/08/31 02:58:27;;;;;;;26.77;18.67;;;;;;;-141.28;100.00;49517.72;5115787;28;20195;-75
2022/08/31 03:00:58;;;;;;;23.57;18.30;;;;;;;-141.28;100.00;49505.94;5102027;28;20196;-74
2022/08/31 03:03:30;;;;;;;23.93;18.03;;;;;;;-141.28;100.00;49521.63;5111128;28;20640;-76
2022/08/31 03:05:58;;;;;;;25.97;17.97;;;;;;;-141.28;100.00;49541.25;5106496;28;20713;-73
2022/08/31 03:08:27;;;;;;;26.70;17.97;;;;;;;-141.28;100.00;49523.59;5097689;28;20642;-75
2022/08/31 03:10:55;;;;;;;27.37;17.80;;;;;;;-141.28;100.00;49525.56;5115059;28;20198;-76
2022/08/31 03:13:23;;;;;;;27.50;17.03;;;;;;;-141.28;100.00;49525.56;5081255;28;20203;-75
2022/08/31 03:15:54;;;;;;;24.67;17.57;;;;;;;-141.28;100.00;49509.88;5075095;28;20212;-77
2022/08/31 03:18:22;;;;;;;25.10;17.13;;;;;;;-141.28;100.00;49488.28;5077238;28;20238;-75
2022/08/31 03:20:53;;;;;;;26.70;17.77;;;;;;;-141.28;100.00;49502.03;5103712;28;20210;-75
2022/08/31 03:23:20;;;;;;;26.17;17.77;;;;;;;-141.28;100.00;49478.47;5085954;28;20195;-76
2022/08/31 03:25:48;;;;;;;23.27;16.50;;;;;;;-141.28;100.00;49484.34;5102312;28;20226;-76
2022/08/31 03:28:17;;;;;;;26.53;17.17;;;;;;;-141.28;100.00;49517.72;5104278;28;20203;-74
2022/08/31 03:30:44;;;;;;;21.57;16.80;;;;;;;-141.28;100.00;49513.78;5107560;28;20207;-76
2022/08/31 03:33:12;;;;;;;23.43;17.47;;;;;;;-141.28;100.00;49521.63;5095474;28;20227;-75
2022/08/31 03:35:43;;;;;;;21.87;17.10;;;;;;;-141.28;100.00;49533.41;5079140;28;20200;-75
2022/08/31 03:38:14;;;;;;;22.80;16.83;;;;;;;-141.28;100.00;49525.56;5073760;28;20269;-75
2022/08/31 03:40:49;;;;;;;24.00;18.17;;;;;;;-141.28;100.00;49535.38;5079588;28;20203;-75
2022/08/31 03:43:17;;;;;;;30.47;17.53;;;;;;;-141.28;100.00;49517.72;5066583;28;20284;-75
2022/08/31 03:45:46;;;;;;;29.23;18.07;;;;;;;-141.28;100.00;49503.97;5093515;28;20689;-76
2022/08/31 03:48:15;;;;;;;27.17;17.47;;;;;;;-141.28;100.00;49482.41;5114445;28;20203;-75
2022/08/31 03:50:43;;;;;;;32.37;17.37;;;;;;;-141.28;100.00;49470.63;5113480;28;20288;-76
2022/08/31 03:53:17;;;;;;;23.10;17.63;;;;;;;-141.28;100.00;49484.34;5091597;28;20211;-76
2022/08/31 03:55:45;;;;;;;23.80;17.03;;;;;;;-141.28;100.00;49462.78;5074352;28;20200;-76
2022/08/31 03:58:14;;;;;;;24.50;17.93;;;;;;;-141.28;100.00;49427.44;5056826;28;20613;-75
2022/08/31 04:00:44;;;;;;;34.40;18.47;;;;;;;-141.28;100.00;49435.31;5075148;28;20208;-75
2022/08/31 04:03:15;;;;;;;26.30;18.40;;;;;;;-141.28;100.00;49421.56;5083668;28;20199;-75
2022/08/31 04:05:44;;;;;;;32.43;18.70;;;;;;;-141.28;100.00;49419.59;5094095;28;20231;-75
2022/08/31 04:08:15;;;;;;;30.13;18.60;;;;;;;-141.28;100.00;49431.38;5073992;28;20227;-76
2022/08/31 04:10:43;;;;;;;25.00;18.53;;;;;;;-141.28;100.00;49407.84;5101899;28;20213;-75
2022/08/31 04:13:11;;;;;;;31.87;19.83;;;;;;;-141.28;100.00;49396.06;5114213;28;20198;-76
2022/08/31 04:15:39;;;;;;;30.03;19.77;;;;;;;-141.28;100.00;49368.59;5098054;28;20210;-75
2022/08/31 04:18:06;;;;;;;32.70;19.17;;;;;;;-141.28;100.00;49388.22;5088288;28;20589;-75
2022/08/31 04:20:36;;;;;;;34.50;19.13;;;;;;;-141.28;100.00;49388.22;5081455;28;20196;-77
2022/08/31 04:23:04;;;;;;;25.67;19.63;;;;;;;-141.28;100.00;49399.97;5073818;28;20206;-76
2022/08/31 04:25:38;;;;;;;40.63;20.17;;;;;;;-141.28;100.00;49405.88;5073399;28;20723;-73
2022/08/31 04:28:08;;;;;;;29.53;17.93;;;;;;;-141.28;100.00;49362.69;5086737;28;20643;-76
2022/08/31 04:30:38;;;;;;;29.03;19.27;;;;;;;-141.28;100.00;49372.50;5074492;28;20563;-74
2022/08/31 04:33:07;;;;;;;26.47;19.43;;;;;;;-141.28;100.00;49364.66;5093171;28;20689;-77
2022/08/31 04:35:40;;;;;;;34.60;19.50;;;;;;;-141.28;100.00;49254.78;5105999;28;20194;-75
2022/08/31 04:38:08;;;;;;;39.67;21.87;;;;;;;-141.28;100.00;49407.84;5101722;28;20222;-75
2022/08/31 04:40:43;;;;;;;37.40;21.40;;;;;;;-141.28;100.00;49380.34;5097772;28;20190;-76
2022/08/31 04:43:14;;;;;;;30.10;19.73;;;;;;;-141.28;100.00;49366.63;5112862;28;20346;-76
2022/08/31 04:45:46;;;;;;;36.10;22.87;;;;;;;-141.28;100.00;49368.59;5105576;28;20244;-75
2022/08/31 04:48:14;;;;;;;31.63;19.60;;;;;;;-141.28;100.00;49372.50;5092747;28;20650;-75
2022/08/31 04:50:41;;;;;;;29.70;19.07;;;;;;;-141.28;100.00;49380.34;5112596;28;20203;-76
2022/08/31 04:53:08;;;;;;;33.07;18.67;;;;;;;-141.28;100.00;49388.22;5113171;28;20230;-74
2022/08/31 04:55:41;;;;;;;28.10;17.90;;;;;;;-141.28;100.00;49419.59;5072926;28;20196;-77
2022/08/31 04:58:11;;;;;;;31.50;18.23;;;;;;;-141.28;100.00;49396.06;5087241;28;20307;-76
2022/08/31 05:00:42;;;;;;;28.80;17.80;;;;;;;-141.28;100.00;49494.16;5080227;28;20232;-75
2022/08/31 05:03:13;;;;;;;31.43;17.80;;;;;;;-141.28;100.00;49515.75;5072731;28;20275;-75
2022/08/31 05:05:42;;;;;;;31.63;17.47;;;;;;;-141.28;100.00;49584.44;5074117;28;20216;-76
2022/08/31 05:08:09;;;;;;;29.87;18.57;;;;;;;-141.28;100.00;49615.84;5089438;28;20278;-77
2022/08/31 05:10:39;;;;;;;28.50;18.20;;;;;;;-141.28;100.00;49666.84;5105202;28;20191;-75
2022/08/31 05:13:11;;;;;;;34.10;18.83;;;;;;;-141.28;100.00;49796.38;5060974;28;20227;-75
2022/08/31 05:15:43;;;;;;;24.13;17.27;;;;;;;-141.28;100.00;49827.78;5105077;28;20203;-75
2022/08/31 05:18:12;;;;;;;26.53;17.57;;;;;;;-141.28;100.00;49865.06;5080771;28;20229;-76
2022/08/31 05:20:45;;;;;;;32.47;17.93;;;;;;;-141.28;100.00;49931.78;5082757;28;20241;-76
2022/08/31 05:23:14;;;;;;;25.37;18.07;;;;;;;-141.28;100.00;49971.03;5095166;28;20207;-76
2022/08/31 05:25:43;;;;;;;23.20;17.07;;;;;;;-141.28;100.00;49965.16;5096690;28;20229;-77
2022/08/31 05:28:22;;;;;;;28.37;18.37;;;;;;;-141.28;100.00;50022.06;5112460;28;20218;-75
2022/08/31 05:30:57;;;;;;;20.20;17.43;;;;;;;-141.28;100.00;50114.31;5086548;28;20254;-75
2022/08/31 05:33:26;;;;;;;27.10;16.73;;;;;;;-141.28;100.00;50188.91;5093401;28;20214;-77
2022/08/31 05:35:55;;;;;;;39.27;18.67;;;;;;;-141.28;100.00;50206.56;5086080;28;20203;-74
2022/08/31 05:38:26;;;;;;;26.70;16.83;;;;;;;-141.28;100.00;50237.97;5085451;28;20727;-76
2022/08/31 05:40:54;;;;;;;32.30;17.50;;;;;;;-141.28;100.00;50308.63;5054175;28;20204;-76
2022/08/31 05:43:35;;;;;;;27.03;17.60;;;;;;;-141.28;100.00;50402.84;5072830;28;20200;-75
2022/08/31 05:46:07;;;;;;;35.53;17.10;;;;;;;-141.28;100.00;50526.50;5072036;28;20655;-76
2022/08/31 05:48:37;;;;;;;31.40;17.70;;;;;;;-141.28;100.00;50422.47;5073613;28;20194;-77
2022/08/31 05:51:11;;;;;;;29.30;17.63;;;;;;;-141.28;100.00;50159.44;5072612;28;20208;-75
2022/08/31 05:53:40;;;;;;;28.87;18.53;;;;;;;-141.28;100.00;50118.25;5066151;28;20232;-76
2022/08/31 05:56:11;;;;;;;26.90;17.17;;;;;;;-141.28;100.00;50035.81;5071885;28;20681;-76
2022/08/31 05:58:43;;;;;;;26.47;16.47;;;;;;;-141.28;100.00;50008.34;5071630;28;20200;-76
2022/08/31 06:01:17;;;;;;;30.20;15.97;;;;;;;-141.28;100.00;49984.78;5075089;28;20195;-77
2022/08/31 06:03:49;;;;;;;28.23;16.93;;;;;;;-141.28;100.00;49910.19;5093326;28;20218;-76
2022/08/31 06:06:18;;;;;;;28.43;16.40;;;;;;;-141.28;100.00;49894.50;5098059;28;20318;-76
2022/08/31 06:08:50;;;;;;;35.13;16.67;;;;;;;-141.28;100.00;49898.44;5094134;28;20278;-75
2022/08/31 06:11:20;;;;;;;19.10;15.73;;;;;;;-141.28;100.00;49961.22;5096490;28;20200;-75
2022/08/31 06:13:52;;;;;;;25.07;16.20;;;;;;;-141.28;100.00;50016.19;5078968;28;20201;-77
2022/08/31 06:16:23;;;;;;;25.23;15.93;;;;;;;-141.28;100.00;50059.34;5096296;28;20659;-77
2022/08/31 06:18:51;;;;;;;22.20;16.17;;;;;;;-141.28;100.00;50131.97;5078637;28;20711;-75
2022/08/31 06:21:24;;;;;;;25.93;15.50;;;;;;;-141.28;100.00;50208.53;5103645;28;20194;-76
2022/08/31 06:23:55;;;;;;;26.23;15.43;;;;;;;-141.28;100.00;50257.59;5091502;28;20215;-76
2022/08/31 06:26:26;;;;;;;23.00;15.27;;;;;;;-141.28;100.00;50330.22;5103667;28;20226;-78
2022/08/31 06:29:03;;;;;;;21.67;16.27;;;;;;;-141.28;100.00;50414.63;5100871;28;20207;-76
2022/08/31 06:31:35;;;;;;;23.57;16.30;;;;;;;-141.28;100.00;50534.34;5115837;28;20267;-75
2022/08/31 06:34:05;;;;;;;28.87;14.70;;;;;;;-141.28;100.00;50608.94;5101203;28;20195;-77
2022/08/31 06:36:34;;;;;;;27.50;15.40;;;;;;;-141.28;100.00;50640.34;5099024;28;20195;-76
2022/08/31 06:39:02;;;;;;;20.77;15.07;;;;;;;-141.28;100.00;50797.38;5082158;28;20222;-77
2022/08/31 06:41:31;;;;;;;19.47;15.87;;;;;;;-141.28;100.00;50828.78;5093273;28;20197;-76
2022/08/31 06:44:06;;;;;;;25.00;16.30;;;;;;;-141.28;100.00;50871.97;5104898;28;20199;-76
2022/08/31 06:46:34;;;;;;;23.00;16.33;;;;;;;-141.28;100.00;50907.31;5107124;28;20227;-75
2022/08/31 06:49:04;;;;;;;21.20;15.93;;;;;;;-141.28;100.00;50934.81;5114555;28;20221;-76
2022/08/31 06:51:35;;;;;;;21.37;16.13;;;;;;;-141.28;100.00;50938.72;5098995;28;20578;-76
2022/08/31 06:54:03;;;;;;;26.27;16.77;;;;;;;-141.28;100.00;50928.91;5102464;28;20205;-76
2022/08/31 06:56:31;;;;;;;32.17;15.77;;;;;;;-141.28;100.00;50942.66;5093721;28;20200;-75
2022/08/31 06:59:02;;;;;;;22.23;16.70;;;;;;;-141.28;100.00;50925.00;5094174;28;20200;-76
2022/08/31 07:01:32;;;;;;;19.73;14.90;;;;;;;-141.28;100.00;50891.63;5112208;28;20201;-76
2022/08/31 07:04:01;;;;;;;26.40;15.37;;;;;;;-141.28;100.00;50915.16;5112810;28;20201;-75
2022/08/31 07:06:32;;;;;;;19.47;14.90;;;;;;;-141.28;100.00;50934.81;5093590;28;20223;-75
2022/08/31 07:09:04;;;;;;;23.33;15.63;;;;;;;-141.28;100.00;50978.00;5092759;28;20201;-74
2022/08/31 07:11:36;;;;;;;23.87;15.40;;;;;;;-141.28;100.00;50932.84;5094293;28;20621;-75
2022/08/31 07:14:07;;;;;;;21.17;15.60;;;;;;;-141.28;100.00;50940.69;5105799;28;20213;-75
2022/08/31 07:16:36;;;;;;;21.73;15.63;;;;;;;-141.28;100.00;51036.88;5103800;28;20377;-75
2022/08/31 07:19:05;;;;;;;22.47;16.17;;;;;;;-141.28;100.00;51052.59;5074146;28;20610;-77
2022/08/31 07:21:34;;;;;;;24.03;15.97;;;;;;;-141.28;100.00;51154.69;5076366;28;20234;-74
2022/08/31 07:24:04;;;;;;;26.93;16.00;;;;;;;-141.28;100.00;51146.81;5087219;28;20211;-77
2022/08/31 07:26:34;;;;;;;19.03;15.03;;;;;;;-141.28;100.00;51227.31;5056852;28;20306;-75
2022/08/31 07:29:05;;;;;;;22.13;14.40;;;;;;;-141.28;100.00;51176.28;5074261;28;20204;-76
2022/08/31 07:31:42;;;;;;;27.37;14.90;;;;;;;-141.28;100.00;51166.47;5076931;28;20217;-75
2022/08/31 07:34:10;;;;;;;23.90;13.70;;;;;;;-141.28;100.00;51168.44;5094666;28;20200;-76
2022/08/31 07:42:10;;;;;;;25.40;14.33;;;;;;;-141.28;100.00;51264.63;5104014;28;20683;-74
2022/08/31 07:44:40;;;;;;;19.37;12.47;;;;;;;-141.28;100.00;51388.31;5096361;28;20202;-76
2022/08/31 07:47:13;;;;;;;19.27;12.23;;;;;;;-141.28;100.00;51358.88;5104675;28;20230;-75
2022/08/31 07:49:49;;;;;;;25.83;13.03;;;;;;;-141.28;100.00;51417.78;5094812;28;20681;-76
2022/08/31 07:52:21;;;;;;;17.60;11.27;;;;;;;-141.28;100.00;51333.34;5092894;28;20195;-75
2022/08/31 07:54:49;;;;;;;16.13;11.17;;;;;;;-141.28;100.00;51441.31;5088643;28;20226;-75
2022/08/31 07:57:20;;;;;;;18.47;11.37;;;;;;;-141.28;100.00;51441.31;5080353;28;20241;-79
2022/08/31 07:59:54;;;;;;;20.57;11.87;;;;;;;-141.28;100.00;51492.38;5113389;28;20558;-76
2022/08/31 08:02:27;;;;;;;17.47;12.00;;;;;;;-141.28;100.00;51492.38;5110055;28;20258;-75
2022/08/31 08:04:57;;;;;;;20.73;10.23;;;;;;;-141.28;100.00;51527.72;5084467;28;20215;-76
2022/08/31 08:07:32;;;;;;;17.90;10.57;;;;;;;-141.28;100.00;51586.63;5100769;28;20654;-75
2022/08/31 08:10:00;;;;;;;17.63;10.97;;;;;;;-141.28;100.00;51592.50;5101115;28;20227;-76
2022/08/31 08:12:29;;;;;;;21.57;10.07;;;;;;;-141.28;100.00;51568.94;5105990;28;20187;-76
2022/08/31 08:14:59;;;;;;;16.57;9.90;;;;;;;-141.28;100.00;51578.78;5075213;28;20203;-75
2022/08/31 08:17:29;;;;;;;14.30;9.30;;;;;;;-141.28;100.00;51521.84;5074225;28;20644;-78
2022/08/31 08:19:56;;;;;;;17.63;9.40;;;;;;;-141.28;100.00;51567.00;5093669;28;20195;-77
2022/08/31 08:22:26;;;;;;;16.50;8.97;;;;;;;-141.28;100.00;51551.28;5098112;28;20190;-75
2022/08/31 08:24:56;;;;;;;11.23;8.23;;;;;;;-141.28;100.00;51559.13;5101039;28;20199;-75
2022/08/31 08:27:23;;;;;;;16.03;8.57;;;;;;;-141.28;100.00;51572.88;5110991;28;20250;-77
2022/08/31 08:29:52;;;;;;;14.07;8.10;;;;;;;-141.28;100.00;51523.78;5093965;28;20669;-76
2022/08/31 08:32:25;;;;;;;12.17;8.80;;;;;;;-141.28;100.00;51508.09;5098363;28;20774;-75
2022/08/31 08:34:53;;;;;;;15.50;8.60;;;;;;;-141.28;100.00;51413.84;5097415;28;20219;-75
2022/08/31 08:37:21;;;;;;;14.47;8.47;;;;;;;-141.28;100.00;51433.47;5094276;28;20196;-76
2022/08/31 08:39:48;;;;;;;15.50;8.63;;;;;;;-141.28;100.00;51343.16;5109770;28;20215;-75
2022/08/31 08:42:19;;;;;;;14.63;8.97;;;;;;;-141.28;100.00;51323.53;5112295;28;20192;-76
2022/08/31 08:44:47;;;;;;;15.57;8.97;;;;;;;-141.28;100.00;51374.56;5109007;28;20203;-76
2022/08/31 08:47:20;;;;;;;16.97;8.63;;;;;;;-141.28;100.00;51370.66;5110878;28;20237;-75
2022/08/31 08:49:49;;;;;;;13.97;8.87;;;;;;;-141.28;100.00;51354.94;5104058;28;20244;-76
2022/08/31 08:52:27;;;;;;;13.67;8.70;;;;;;;-141.28;100.00;51319.59;5074044;28;20207;-75
2022/08/31 08:54:56;;;;;;;11.67;8.30;;;;;;;-141.28;100.00;51243.03;5110309;28;20199;-76
2022/08/31 08:57:26;;;;;;;13.00;8.57;;;;;;;-141.28;100.00;51248.91;5110267;28;20671;-76
2022/08/31 08:59:57;;;;;;;13.07;8.90;;;;;;;-141.28;100.00;51260.69;5086396;28;20196;-75
2022/08/31 09:02:30;;;;;;;13.70;8.00;;;;;;;-141.28;100.00;51201.81;5108407;28;20639;-75
2022/08/31 09:05:41;;;;;;;12.50;8.10;;;;;;;-141.28;100.00;51001.56;5110913;28;20201;-76
2022/08/31 09:08:42;;;;;;;12.17;7.43;;;;;;;-141.28;100.00;50813.09;5059208;28;20198;-74
2022/08/31 09:11:21;;;;;;;14.47;10.63;;;;;;;-141.28;100.00;50714.94;5066150;28;20253;-76
2022/08/31 09:13:58;;;;;;;17.47;9.33;;;;;;;-141.28;100.00;50722.78;5073432;28;20264;-75
2022/08/31 09:16:39;;;;;;;11.70;7.73;;;;;;;-141.28;100.00;50822.91;5074390;28;20212;-75
2022/08/31 09:19:12;;;;;;;14.83;7.80;;;;;;;-141.28;100.00;50691.38;5076049;28;20708;-75
2022/08/31 09:21:43;;;;;;;9.43;7.53;;;;;;;-141.28;100.00;50561.81;5072612;28;20203;-75
2022/08/31 09:24:18;;;;;;;11.50;7.77;;;;;;;-141.28;100.00;50573.59;5071957;28;20603;-77
2022/08/31 09:26:54;;;;;;;11.63;7.97;;;;;;;-141.28;100.00;50630.53;5088520;28;20224;-76
2022/08/31 09:29:23;;;;;;;13.73;7.47;;;;;;;-141.28;100.00;50514.72;5080005;28;20204;-77
2022/08/31 09:32:02;;;;;;;9.57;8.13;;;;;;;-141.28;100.00;50489.19;5083083;28;20233;-76
2022/08/31 09:34:31;;;;;;;14.03;8.43;;;;;;;-141.28;100.00;50620.72;5085893;28;20262;-76
2022/08/31 09:37:14;;;;;;;13.37;7.77;;;;;;;-141.28;100.00;50553.97;5083917;28;20235;-75
2022/08/31 09:39:48;;;;;;;10.90;7.77;;;;;;;-141.28;100.00;50561.81;5085406;28;20655;-76
2022/08/31 09:42:29;;;;;;;15.07;8.20;;;;;;;-141.28;100.00;50499.00;5072097;28;20292;-75
2022/08/31 09:45:00;;;;;;;19.00;8.80;;;;;;;-141.28;100.00;50508.81;5053691;28;20202;-76
2022/08/31 09:47:51;;;;;;;11.93;7.47;;;;;;;-141.28;100.00;50436.19;5089903;28;20233;-76
2022/08/31 09:50:49;;;;;;;10.87;7.17;;;;;;;-141.28;100.00;50137.88;5093315;28;20203;-76
2022/08/31 09:56:12;;;;;;;12.90;8.30;;;;;;;-141.28;100.00;50236.00;5091558;28;20656;-76
2022/08/31 09:58:42;;;;;;;8.73;7.07;;;;;;;-141.28;100.00;50122.16;5091787;28;20650;-75
2022/08/31 10:01:14;;;;;;;11.80;7.93;;;;;;;-141.28;100.00;50098.63;5092889;28;20569;-77
2022/08/31 10:03:44;;;;;;;13.50;7.60;;;;;;;-141.28;100.00;50251.69;5101172;28;20204;-74
2022/08/31 10:06:46;;;;;;;15.07;8.10;;;;;;;-141.28;100.00;50220.28;5096172;28;20189;-76
2022/08/31 10:09:27;;;;;;;11.80;7.87;;;;;;;-141.28;100.00;50149.63;5038718;28;20200;-78
2022/08/31 10:12:03;;;;;;;9.47;6.90;;;;;;;-141.28;100.00;49908.25;5091130;28;20730;-74
2022/08/31 10:14:37;;;;;;;10.73;7.33;;;;;;;-141.28;100.00;49845.44;5108829;28;20190;-75
2022/08/31 10:17:10;;;;;;;12.63;7.80;;;;;;;-141.28;100.00;49674.72;5103836;28;20208;-76
2022/08/31 10:19:52;;;;;;;11.77;6.77;;;;;;;-141.28;100.00;49384.28;5094645;28;20203;-75
2022/08/31 10:22:26;;;;;;;10.83;7.87;;;;;;;-141.28;100.00;49368.59;5071639;28;20214;-74
2022/08/31 10:25:20;;;;;;;10.57;7.27;;;;;;;-141.28;100.00;49323.44;5071443;28;20206;-76
2022/08/31 10:27:54;;;;;;;15.47;7.37;;;;;;;-141.28;100.00;49203.75;5071543;28;20585;-75
2022/08/31 10:30:30;;;;;;;13.43;7.67;;;;;;;-141.28;100.00;49184.13;5071440;28;20203;-75
2022/08/31 10:33:10;;;;;;;9.93;7.23;;;;;;;-141.28;100.00;49072.31;5071291;28;20214;-76
2022/08/31 10:35:43;;;;;;;13.87;7.17;;;;;;;-141.28;100.00;48834.91;5071736;28;20211;-76
2022/08/31 10:38:22;;;;;;;9.00;7.07;;;;;;;-141.28;100.00;48858.44;5093577;28;20229;-76
2022/08/31 10:40:53;;;;;;;26.03;11.97;;;;;;;-141.28;100.00;49025.22;5087431;28;20567;-75
2022/08/31 10:43:28;;;;;;;14.70;7.97;;;;;;;-141.28;100.00;49611.91;5071466;28;20207;-75
2022/08/31 10:45:55;;;;;;;10.77;7.70;;;;;;;-141.28;100.00;49992.63;5090910;28;20217;-76
2022/08/31 10:48:25;;;;;;;14.50;8.60;;;;;;;-141.28;100.00;50220.28;5091461;28;20225;-75
2022/08/31 10:51:04;;;;;;;18.67;8.63;;;;;;;-141.28;100.00;50122.16;5085466;28;20208;-75
2022/08/31 10:53:51;;;;;;;11.53;7.70;;;;;;;-141.28;100.00;50186.94;5071199;28;20647;-76
2022/08/31 10:56:25;;;;;;;13.53;8.07;;;;;;;-141.28;100.00;50351.81;5071082;28;20283;-75
2022/08/31 10:59:15;;;;;;;11.40;7.70;;;;;;;-141.28;100.00;50593.22;5071095;28;20193;-75
2022/08/31 11:01:52;;;;;;;19.37;8.60;;;;;;;-141.28;100.00;50714.94;5081008;28;20673;-76
2022/08/31 11:04:58;;;;;;;15.30;9.13;;;;;;;-141.28;100.00;50793.47;5088228;28;20287;-76
2022/08/31 11:07:36;;;;;;;22.77;8.37;;;;;;;-141.28;100.00;50658.00;5077648;28;20774;-74
2022/08/31 11:10:18;;;;;;;11.37;7.87;;;;;;;-141.28;100.00;50669.78;5070927;28;20668;-75
2022/08/31 11:12:51;;;;;;;15.67;9.23;;;;;;;-141.28;100.00;50589.31;5099764;28;20321;-75
2022/08/31 11:15:50;;;;;;;15.20;9.93;;;;;;;-141.28;100.00;50813.09;5086159;28;20204;-77
2022/08/31 11:18:47;;;;;;;16.50;9.57;;;;;;;-141.28;100.00;51038.84;5081502;28;20228;-76
2022/08/31 11:21:38;;;;;;;18.93;9.17;;;;;;;-141.28;100.00;51315.66;5091101;28;20296;-76
2022/08/31 11:24:27;;;;;;;18.13;9.83;;;;;;;-141.28;100.00;51352.97;5087170;28;20202;-76
2022/08/31 11:27:01;;;;;;;19.60;9.57;;;;;;;-141.28;100.00;51354.94;5074169;28;20286;-76
2022/08/31 11:29:42;;;;;;;27.20;10.57;;;;;;;-141.28;100.00;51268.56;5074441;28;20204;-76